Terminal Aerodrome Forecast
Issued by NWS Rapid City, SD

Home | Current Version | Previous Version | Text Only | Print | Product List | Glossary Off
Versions: 1 2 3 4 5 6 7 8 9 10 11 12 13 14 15 16 17 18 19 20 21 22 23 24

000
FTUS43 KUNR 300501
TAFRAP
TAF
KRAP 300501Z 3006/0106 02006KT P6SM OVC026
     FM300800 01008KT P6SM OVC015
     FM300900 36010KT 3SM -RA OVC007
     FM301600 36018G28KT P6SM OVC015
     FM302300 02017KT P6SM OVC040
     FM010200 36009KT P6SM BKN080=

USA.gov is the U.S. government's official web portal to all federal, state and local government web resources and services.